Time;durP1;ratioP1;P1;durP2;ratioP2;P2;SDS_P1;SDS_P2;PMS_P1;PMS_P2;Temp;Humidity;BMP_temperature;BMP_pressure;BME280_temperature;BME280_humidity;BME280_pressure;Samples;Min_cycle;Max_cycle;Signal;HPM_P1;HPM_P2
2022/01/16 00:00:21;;;;;;;44.35;13.50;;;;;;;1.12;56.18;101035.75;4413642;32;33660;-85
2022/01/16 00:05:29;;;;;;;20.65;7.80;;;;;;;1.14;56.08;101031.47;4428205;32;34960;-85
2022/01/16 00:07:57;;;;;;;18.15;7.78;;;;;;;0.91;57.16;101031.13;4426408;32;35000;-87
2022/01/16 00:10:29;;;;;;;20.42;8.15;;;;;;;0.66;57.58;101011.62;4427034;32;34184;-87
2022/01/16 00:12:59;;;;;;;13.15;6.43;;;;;;;0.80;57.08;101011.84;4413288;32;33457;-87
2022/01/16 00:15:27;;;;;;;16.17;6.68;;;;;;;0.70;56.91;101008.25;4413704;32;32082;-87
2022/01/16 00:20:32;;;;;;;15.00;6.50;;;;;;;0.68;56.98;101007.34;4417342;32;32464;-87
2022/01/16 00:23:03;;;;;;;17.25;7.25;;;;;;;0.81;56.42;101023.13;4413985;32;32658;-87
2022/01/16 00:25:35;;;;;;;27.95;9.13;;;;;;;0.96;56.09;101028.59;4427167;32;33431;-87
2022/01/16 00:28:03;;;;;;;22.02;7.75;;;;;;;0.67;57.31;101039.41;4421571;32;34734;-87
2022/01/16 00:30:33;;;;;;;19.67;7.00;;;;;;;0.81;57.05;101065.62;4402269;32;34890;-86
2022/01/16 00:33:01;;;;;;;18.48;6.10;;;;;;;0.88;56.58;101022.38;4411921;32;34709;-87
2022/01/16 00:35:29;;;;;;;17.25;6.15;;;;;;;0.82;56.39;100996.31;4395736;32;32897;-87
2022/01/16 00:37:57;;;;;;;21.80;6.95;;;;;;;0.48;57.18;101021.78;4409115;32;34168;-86
2022/01/16 00:40:25;;;;;;;17.80;6.47;;;;;;;0.39;57.87;101038.06;4428125;32;33841;-86
2022/01/16 00:42:55;;;;;;;23.20;6.68;;;;;;;0.60;57.14;101021.06;4415336;32;32110;-87
2022/01/16 00:45:24;;;;;;;26.25;7.60;;;;;;;0.60;56.68;101019.34;4414173;32;31972;-87
2022/01/16 00:47:52;;;;;;;18.33;6.80;;;;;;;0.42;57.24;100996.53;4416681;32;32356;-87
2022/01/16 00:50:20;;;;;;;21.05;7.68;;;;;;;0.58;56.32;101007.19;4395330;32;33264;-87
2022/01/16 00:52:48;;;;;;;14.35;6.60;;;;;;;0.33;57.18;101006.75;4425184;32;33527;-87
2022/01/16 00:55:15;;;;;;;21.25;7.28;;;;;;;0.16;57.49;101006.50;4417302;32;32021;-87
2022/01/16 00:57:43;;;;;;;22.80;7.60;;;;;;;0.04;58.20;101028.75;4413827;32;33646;-87
2022/01/16 01:00:11;;;;;;;18.40;6.45;;;;;;;0.06;57.91;101017.56;4402076;32;34311;-86
2022/01/16 01:02:39;;;;;;;22.13;7.00;;;;;;;0.07;58.23;100992.47;4401732;32;32464;-87
2022/01/16 01:05:08;;;;;;;15.10;6.55;;;;;;;0.11;57.74;101004.66;4413286;32;33473;-89
2022/01/16 01:07:38;;;;;;;14.60;6.50;;;;;;;0.12;57.35;101012.47;4433333;32;33120;-88
2022/01/16 01:10:33;;;;;;;18.45;6.30;;;;;;;0.09;57.43;101017.59;4417228;32;32985;-89
2022/01/16 01:15:57;;;;;;;16.48;5.70;;;;;;;-0.17;58.71;101044.81;4415674;32;32497;-88
2022/01/16 01:18:25;;;;;;;15.57;5.62;;;;;;;0.12;57.38;101054.03;4415743;32;32929;-88
2022/01/16 01:20:54;;;;;;;14.02;5.75;;;;;;;0.03;57.35;100938.72;4424796;32;35287;-87
2022/01/16 01:23:22;;;;;;;12.05;5.57;;;;;;;-0.28;58.11;100933.88;4427682;32;33235;-88
2022/01/16 01:25:50;;;;;;;14.45;5.28;;;;;;;-0.10;57.61;100958.41;4412477;32;32924;-88
2022/01/16 01:28:18;;;;;;;14.95;4.95;;;;;;;-0.01;56.92;100946.44;4414009;32;33921;-88
2022/01/16 01:30:47;;;;;;;15.18;5.70;;;;;;;-0.05;56.91;100951.56;4395416;32;32706;-88
2022/01/16 01:33:18;;;;;;;13.23;5.07;;;;;;;-0.31;57.26;100975.31;4412052;32;33088;-88
2022/01/16 01:35:47;;;;;;;11.25;5.32;;;;;;;-0.09;57.15;100967.97;4419969;32;33192;-88
2022/01/16 01:38:20;;;;;;;13.15;5.68;;;;;;;-0.49;58.50;101010.41;4402590;32;32991;-88
2022/01/16 01:40:49;;;;;;;10.07;4.82;;;;;;;-0.41;58.06;101020.13;4425867;32;32770;-88
2022/01/16 01:51:49;;;;;;;10.00;4.25;;;;;;;-0.23;57.92;101032.59;4405213;32;32773;-87
2022/01/16 01:54:16;;;;;;;11.15;4.65;;;;;;;-0.37;58.20;100990.78;4401355;32;33695;-87
2022/01/16 01:56:44;;;;;;;9.32;4.32;;;;;;;-0.26;57.60;100999.66;4413460;32;31995;-87
2022/01/16 01:59:12;;;;;;;11.50;4.43;;;;;;;-0.24;57.38;101012.63;4407603;32;32422;-87
2022/01/16 02:01:40;;;;;;;11.95;4.87;;;;;;;-0.21;57.54;101007.53;4426625;32;34312;-87
2022/01/16 02:04:08;;;;;;;12.55;4.53;;;;;;;-0.30;57.53;100995.25;4412674;32;32775;-87
2022/01/16 02:06:38;;;;;;;14.68;5.47;;;;;;;-0.40;57.65;101008.00;4412997;32;32116;-88
2022/01/16 02:09:06;;;;;;;15.70;5.15;;;;;;;-0.83;58.69;101001.94;4407679;32;32872;-87
2022/01/16 02:11:35;;;;;;;13.15;5.70;;;;;;;-0.81;58.97;101003.72;4413753;32;33964;-87
2022/01/16 02:14:23;;;;;;;11.32;4.60;;;;;;;-0.67;58.36;101013.50;4415341;32;32653;-87
2022/01/16 02:28:24;;;;;;;12.73;4.78;;;;;;;-0.95;59.33;101041.44;4420092;32;34113;-87
2022/01/16 02:36:27;;;;;;;9.18;3.90;;;;;;;-0.64;57.27;101039.50;4425532;32;34520;-87
2022/01/16 02:39:10;;;;;;;10.15;4.57;;;;;;;-0.89;57.61;101035.50;4427194;32;33010;-86
2022/01/16 02:41:39;;;;;;;12.10;4.20;;;;;;;-0.71;57.43;101029.81;4425971;32;33788;-86
2022/01/16 02:44:31;;;;;;;14.00;4.15;;;;;;;-0.56;57.04;101037.97;4426473;32;33790;-87
2022/01/16 02:46:59;;;;;;;11.85;3.97;;;;;;;-0.54;57.11;101042.31;4423822;32;33205;-87
2022/01/16 02:49:32;;;;;;;9.82;4.72;;;;;;;-0.69;57.32;101036.81;4413732;32;32173;-88
2022/01/16 02:52:06;;;;;;;6.35;4.37;;;;;;;-0.89;58.04;101051.06;4405301;32;32891;-88
2022/01/16 02:54:37;;;;;;;8.13;3.78;;;;;;;-0.88;58.33;101037.25;4413653;32;32613;-88
2022/01/16 02:57:07;;;;;;;11.73;4.47;;;;;;;-0.64;57.45;101036.91;4424327;32;33214;-88
2022/01/16 02:59:36;;;;;;;11.77;4.25;;;;;;;-0.80;58.14;101033.13;4387993;32;32112;-88
2022/01/16 03:02:07;;;;;;;12.88;4.50;;;;;;;-0.80;57.96;101021.03;4426517;32;33334;-88
2022/01/16 03:04:36;;;;;;;12.52;4.50;;;;;;;-1.01;58.69;101025.72;4391823;32;34451;-88
2022/01/16 03:07:04;;;;;;;16.75;4.95;;;;;;;-0.90;58.80;101018.19;4406434;32;32966;-88
2022/01/16 03:09:56;;;;;;;9.90;4.45;;;;;;;-0.94;58.30;101021.56;4393677;32;32380;-87
2022/01/16 03:12:20;;;;;;;8.85;4.00;;;;;;;-0.67;57.52;101011.78;4425888;32;33972;-88
2022/01/16 03:14:47;;;;;;;12.90;4.75;;;;;;;-0.62;57.53;101015.38;4399397;32;34267;-88
2022/01/16 03:17:35;;;;;;;8.40;3.87;;;;;;;-0.63;57.17;101018.78;4402881;32;33507;-88
2022/01/16 03:22:51;;;;;;;10.68;3.53;;;;;;;-0.79;56.67;101012.41;4415994;32;32312;-88
2022/01/16 03:25:19;;;;;;;13.20;4.75;;;;;;;-1.34;58.29;101013.72;4428768;32;34864;-88
2022/01/16 03:27:47;;;;;;;8.48;4.12;;;;;;;-1.44;58.89;101019.53;4403033;32;33305;-88
2022/01/16 03:30:14;;;;;;;8.73;4.50;;;;;;;-1.24;58.46;101004.44;4421472;32;32237;-88
2022/01/16 03:32:43;;;;;;;13.95;4.22;;;;;;;-1.34;58.27;101010.25;4408930;32;34321;-88
2022/01/16 03:35:10;;;;;;;11.65;5.28;;;;;;;-1.18;57.73;101011.53;4421043;32;33151;-88
2022/01/16 03:37:40;;;;;;;12.73;4.57;;;;;;;-1.30;57.78;101007.78;4426929;32;33493;-87
2022/01/16 03:40:11;;;;;;;16.62;5.60;;;;;;;-1.22;57.65;101005.38;4414314;32;31744;-86
2022/01/16 03:42:39;;;;;;;11.20;5.05;;;;;;;-1.10;57.32;101010.81;4396286;32;32827;-87
2022/01/16 03:45:08;;;;;;;12.07;4.87;;;;;;;-1.32;57.97;101003.41;4415462;32;32999;-86
2022/01/16 03:47:36;;;;;;;16.52;4.78;;;;;;;-1.28;57.98;101002.66;4413569;32;33048;-86
2022/01/16 03:50:05;;;;;;;10.38;4.12;;;;;;;-1.14;57.35;101000.34;4421580;32;32437;-86
2022/01/16 03:52:33;;;;;;;12.80;4.53;;;;;;;-1.45;58.04;101010.00;4416388;32;33514;-86
2022/01/16 03:55:03;;;;;;;11.98;4.65;;;;;;;-1.28;57.92;101000.06;4427845;32;34095;-86
2022/01/16 03:57:30;;;;;;;19.98;5.55;;;;;;;-1.13;57.40;101000.41;4412599;32;32975;-87
2022/01/16 03:59:58;;;;;;;17.30;5.82;;;;;;;-1.16;56.86;100996.87;4416539;32;33180;-87
2022/01/16 04:02:26;;;;;;;12.40;4.85;;;;;;;-1.24;57.15;100991.50;4425956;32;34292;-86
2022/01/16 04:04:54;;;;;;;17.80;5.65;;;;;;;-1.34;57.88;100987.81;4414527;32;33206;-85
2022/01/16 04:07:27;;;;;;;15.20;5.10;;;;;;;-1.37;58.02;100989.47;4420971;32;34256;-84
2022/01/16 04:09:56;;;;;;;11.05;5.32;;;;;;;-1.18;57.32;100990.78;4402534;32;32461;-85
2022/01/16 04:12:24;;;;;;;13.73;5.05;;;;;;;-1.56;58.44;100994.22;4427189;32;33875;-85
2022/01/16 04:17:24;;;;;;;12.77;5.10;;;;;;;-1.50;58.59;100995.19;4426536;32;34662;-86
2022/01/16 04:19:52;;;;;;;12.77;5.43;;;;;;;-1.22;57.73;100991.56;4428470;32;33249;-86
2022/01/16 04:22:21;;;;;;;9.70;4.65;;;;;;;-1.39;57.69;100991.12;4407778;32;34466;-86
2022/01/16 04:24:48;;;;;;;13.93;5.28;;;;;;;-1.37;57.65;100997.25;4408850;32;33274;-86
2022/01/16 04:27:17;;;;;;;11.65;4.43;;;;;;;-1.37;57.73;100989.47;4415578;32;34594;-86
2022/01/16 04:29:45;;;;;;;17.80;5.37;;;;;;;-1.34;56.76;100990.41;4401979;32;33247;-86
2022/01/16 04:32:13;;;;;;;13.77;5.70;;;;;;;-1.48;57.25;101002.16;4426456;32;34303;-86
2022/01/16 04:34:41;;;;;;;15.05;5.82;;;;;;;-1.52;57.30;101002.91;4426995;32;33491;-86
2022/01/16 04:37:09;;;;;;;16.08;5.57;;;;;;;-1.38;56.85;100992.87;4427267;32;33931;-86
2022/01/16 04:39:37;;;;;;;12.90;4.78;;;;;;;-1.27;56.74;100993.16;4414788;32;33077;-86
2022/01/16 04:44:52;;;;;;;12.20;4.47;;;;;;;-1.61;58.42;101006.19;4426818;32;34582;-87
2022/01/16 04:47:20;;;;;;;9.45;4.65;;;;;;;-1.80;58.09;101003.97;4415042;32;33713;-87
2022/01/16 04:49:48;;;;;;;18.05;5.40;;;;;;;-1.69;58.42;101001.66;4407901;32;32882;-87
2022/01/16 04:52:16;;;;;;;11.85;4.87;;;;;;;-1.69;58.02;101001.66;4426440;32;33736;-86
2022/01/16 04:54:43;;;;;;;13.98;4.20;;;;;;;-1.59;57.41;100988.94;4401603;32;32967;-87
2022/01/16 04:57:13;;;;;;;11.55;4.07;;;;;;;-1.53;57.50;100987.34;4401775;32;34342;-86
2022/01/16 04:59:41;;;;;;;12.48;4.50;;;;;;;-1.32;56.69;100975.78;4416692;32;32258;-87
2022/01/16 05:02:09;;;;;;;13.65;4.50;;;;;;;-1.75;57.80;100993.72;4426579;32;34358;-86
2022/01/16 05:04:37;;;;;;;12.35;5.85;;;;;;;-1.55;57.36;100989.91;4414600;32;33359;-87
2022/01/16 05:07:06;;;;;;;14.13;5.72;;;;;;;-1.79;57.49;100984.12;4409501;32;33806;-87
2022/01/16 05:09:34;;;;;;;13.75;5.50;;;;;;;-1.73;57.42;100994.62;4407580;32;32736;-86
2022/01/16 05:12:08;;;;;;;9.75;4.80;;;;;;;-1.67;57.15;100984.41;4410451;32;33617;-85
2022/01/16 05:17:22;;;;;;;20.60;6.03;;;;;;;-1.98;59.14;100983.66;4419906;32;33236;-86
2022/01/16 05:19:50;;;;;;;16.17;6.00;;;;;;;-1.64;58.11;100985.38;4392229;32;32273;-85
2022/01/16 05:22:18;;;;;;;20.52;6.80;;;;;;;-2.18;59.33;100996.06;4410139;32;33429;-86
2022/01/16 05:24:46;;;;;;;21.30;6.87;;;;;;;-2.11;58.50;100987.62;4411409;32;33323;-85
2022/01/16 05:27:15;;;;;;;14.82;5.00;;;;;;;-1.78;57.82;100980.69;4409580;32;33678;-84
2022/01/16 05:29:42;;;;;;;11.05;5.53;;;;;;;-1.95;57.61;100978.53;4425820;32;32751;-87
2022/01/16 05:32:10;;;;;;;14.85;5.57;;;;;;;-2.18;58.68;100990.03;4426914;32;33762;-85
2022/01/16 05:34:38;;;;;;;13.50;6.03;;;;;;;-2.14;58.94;100992.69;4403768;32;33742;-86
2022/01/16 05:37:06;;;;;;;12.40;5.78;;;;;;;-2.05;58.52;100992.06;4410467;32;33396;-86
2022/01/16 05:39:34;;;;;;;18.20;6.90;;;;;;;-1.85;57.63;100980.56;4416976;32;33563;-85
2022/01/16 05:42:02;;;;;;;20.77;6.78;;;;;;;-2.19;58.44;100990.84;4416665;32;33795;-86
2022/01/16 05:44:30;;;;;;;18.48;7.20;;;;;;;-2.11;58.38;100992.78;4407004;32;33366;-86
2022/01/16 05:47:02;;;;;;;14.93;8.07;;;;;;;-1.84;57.93;100996.94;4422477;32;34158;-86
2022/01/16 05:49:30;;;;;;;;;;;;;;;-1.90;58.29;101000.28;4412986;32;33468;-86
2022/01/16 05:51:57;;;;;;;16.00;6.28;;;;;;;-1.81;57.52;101008.25;4410229;32;32842;-85
2022/01/16 05:54:25;;;;;;;17.87;6.57;;;;;;;-2.02;58.37;101012.87;4419693;32;32670;-86
2022/01/16 05:56:53;;;;;;;16.73;7.45;;;;;;;-2.00;58.35;101016.37;4391549;32;35721;-86
2022/01/16 05:59:20;;;;;;;22.42;7.32;;;;;;;-2.04;58.44;101014.56;4411040;32;32343;-86
2022/01/16 06:01:48;;;;;;;11.98;5.90;;;;;;;-1.99;58.10;101023.31;4416185;32;33845;-86
2022/01/16 06:04:16;;;;;;;19.05;6.12;;;;;;;-1.94;57.57;101032.09;4421085;32;34075;-86
2022/01/16 06:06:44;;;;;;;13.13;6.80;;;;;;;-2.02;57.74;101018.06;4419484;32;33685;-86
2022/01/16 06:09:11;;;;;;;15.90;7.25;;;;;;;-2.05;58.03;101023.13;4421225;32;32646;-86
2022/01/16 06:11:39;;;;;;;19.83;7.37;;;;;;;-2.01;58.01;101024.97;4396734;32;32740;-86
2022/01/16 06:14:07;;;;;;;15.82;7.28;;;;;;;-2.23;58.45;101020.94;4409421;32;33970;-84
2022/01/16 06:16:35;;;;;;;19.42;7.97;;;;;;;-2.25;57.95;101025.19;4422499;32;34146;-85
2022/01/16 06:19:03;;;;;;;18.62;8.05;;;;;;;-2.00;57.47;101028.44;4414870;32;32813;-85
2022/01/16 06:21:31;;;;;;;21.65;7.87;;;;;;;-2.05;57.41;101030.91;4417553;32;33221;-85
2022/01/16 06:23:59;;;;;;;17.52;7.87;;;;;;;-2.30;58.40;101025.91;4421349;32;33050;-85
2022/01/16 06:26:27;;;;;;;12.73;6.85;;;;;;;-2.35;58.38;101034.41;4423508;32;33631;-85
2022/01/16 06:28:55;;;;;;;23.12;9.80;;;;;;;-2.48;58.71;101032.28;4408902;32;32827;-85
2022/01/16 06:31:23;;;;;;;20.00;9.05;;;;;;;-2.17;58.31;101035.75;4413694;32;34308;-85
2022/01/16 06:33:51;;;;;;;25.40;10.77;;;;;;;-2.18;57.92;101032.28;4415748;32;33974;-85
2022/01/16 06:36:19;;;;;;;25.33;10.48;;;;;;;-2.30;58.00;101036.25;4411295;32;32734;-86
2022/01/16 06:38:47;;;;;;;27.48;11.45;;;;;;;-2.13;57.77;101029.84;4401175;32;33487;-86
2022/01/16 06:41:15;;;;;;;21.35;10.82;;;;;;;-1.99;57.37;101030.19;4415150;32;34101;-86
2022/01/16 06:43:43;;;;;;;27.90;11.07;;;;;;;-2.14;58.15;101038.41;4404316;32;34796;-88
2022/01/16 06:46:10;;;;;;;33.08;13.77;;;;;;;-2.04;57.79;101040.44;4385959;32;32770;-87
2022/01/16 06:48:40;;;;;;;26.52;13.75;;;;;;;-2.21;58.53;101036.50;4391779;32;33392;-87
2022/01/16 06:51:08;;;;;;;29.67;15.00;;;;;;;-2.16;58.72;101043.56;4406846;32;33122;-88
2022/01/16 06:53:36;;;;;;;37.47;16.60;;;;;;;-1.95;58.01;101029.44;4412696;32;32959;-88
2022/01/16 06:56:04;;;;;;;37.47;19.25;;;;;;;-2.03;58.49;101026.66;4401820;32;32828;-88
2022/01/16 06:58:32;;;;;;;31.50;13.88;;;;;;;-2.03;58.72;101037.00;4406630;32;32868;-88
2022/01/16 07:01:00;;;;;;;23.00;10.88;;;;;;;-1.83;57.68;101028.06;4390788;32;35962;-88
2022/01/16 07:03:28;;;;;;;20.92;9.25;;;;;;;-2.20;58.33;101035.66;4406429;32;31982;-88
2022/01/16 07:05:57;;;;;;;19.85;8.73;;;;;;;-2.07;58.35;101027.41;4390442;32;32706;-87
2022/01/16 07:08:26;;;;;;;23.70;10.05;;;;;;;-2.04;57.73;101024.91;4405322;32;30125;-85
2022/01/16 07:10:55;;;;;;;49.55;16.77;;;;;;;-2.09;58.14;101024.78;4410691;32;33268;-85
2022/01/16 07:13:24;;;;;;;29.85;12.77;;;;;;;-1.90;58.00;101023.56;4396452;32;32973;-85
2022/01/16 07:15:52;;;;;;;32.65;13.10;;;;;;;-2.08;58.44;101028.25;4409562;32;33635;-85
2022/01/16 07:18:21;;;;;;;37.90;15.38;;;;;;;-2.17;58.73;101039.22;4424353;32;33798;-86
2022/01/16 07:20:49;;;;;;;45.80;17.65;;;;;;;-2.00;58.53;101042.25;4405297;32;32898;-85
2022/01/16 07:23:17;;;;;;;59.42;20.33;;;;;;;-2.07;59.05;101045.53;4404649;32;33625;-86
2022/01/16 07:25:45;;;;;;;45.83;18.17;;;;;;;-1.76;58.63;101054.09;4386938;32;34874;-86
2022/01/16 07:28:13;;;;;;;35.05;15.93;;;;;;;-1.70;58.67;101054.28;4399712;32;33674;-86
2022/01/16 07:30:41;;;;;;;45.03;17.20;;;;;;;-1.73;58.79;101055.06;4395452;32;32988;-86
2022/01/16 07:33:09;;;;;;;31.52;14.43;;;;;;;-1.72;59.44;101053.34;4422060;32;34796;-85
2022/01/16 07:35:37;;;;;;;30.33;13.57;;;;;;;-1.44;59.00;101045.44;4405312;32;33388;-85
2022/01/16 07:38:07;;;;;;;32.13;12.60;;;;;;;-1.37;59.21;101036.13;4413956;32;33354;-86
2022/01/16 07:40:36;;;;;;;32.80;14.05;;;;;;;-1.41;59.64;101035.16;4406164;32;34028;-86
2022/01/16 07:43:03;;;;;;;31.10;12.50;;;;;;;-1.29;59.66;101035.44;4407132;32;30704;-86
2022/01/16 07:45:31;;;;;;;35.72;14.10;;;;;;;-1.24;60.01;101050.22;4399414;32;32943;-86
2022/01/16 07:47:59;;;;;;;31.37;14.38;;;;;;;-1.34;60.49;101049.12;4429120;32;33248;-86
2022/01/16 07:50:29;;;;;;;28.00;12.90;;;;;;;-0.69;58.33;101038.53;4404116;32;33204;-86
2022/01/16 07:52:58;;;;;;;29.10;12.63;;;;;;;-0.73;58.48;101047.09;4418874;32;33204;-86
2022/01/16 07:55:26;;;;;;;29.50;12.25;;;;;;;-1.17;60.20;101049.53;4397337;32;34900;-86
2022/01/16 07:57:55;;;;;;;28.25;11.57;;;;;;;-0.94;59.62;101038.00;4406433;32;32889;-86
2022/01/16 08:00:32;;;;;;;31.52;12.05;;;;;;;-0.90;59.34;101039.81;4419012;32;34313;-87
2022/01/16 08:03:02;;;;;;;29.85;12.10;;;;;;;-1.09;59.90;101037.66;4419632;32;34095;-87
2022/01/16 08:05:31;;;;;;;22.62;10.65;;;;;;;-0.99;59.98;101036.16;4406017;32;33783;-86
2022/01/16 08:07:58;;;;;;;27.45;12.32;;;;;;;-1.05;60.02;101039.44;4402624;32;34222;-86
2022/01/16 08:10:26;;;;;;;31.15;12.90;;;;;;;-1.27;60.59;101034.63;4405565;32;33814;-86
2022/01/16 08:12:54;;;;;;;27.33;12.10;;;;;;;-1.17;60.50;101021.91;4405824;32;33731;-86
2022/01/16 08:15:22;;;;;;;25.92;12.00;;;;;;;-0.94;59.79;101019.84;4419400;32;32214;-86
2022/01/16 08:17:50;;;;;;;32.38;13.38;;;;;;;-0.81;59.49;101011.50;4403176;32;32517;-87
2022/01/16 08:20:17;;;;;;;28.23;12.70;;;;;;;-0.70;59.43;101009.13;4391040;32;33131;-86
2022/01/16 08:22:45;;;;;;;26.80;12.48;;;;;;;-0.37;58.18;101005.50;4402768;32;34933;-86
2022/01/16 08:25:15;;;;;;;24.98;12.30;;;;;;;-0.54;58.47;101012.91;4417515;32;33143;-87
2022/01/16 08:27:43;;;;;;;24.87;12.35;;;;;;;-0.98;60.40;101020.63;4407028;32;32922;-86
2022/01/16 08:30:11;;;;;;;25.35;11.40;;;;;;;-1.04;61.56;101012.72;4415302;32;33867;-86
2022/01/16 08:32:42;;;;;;;26.37;13.00;;;;;;;-0.65;60.50;101006.63;4407155;32;31416;-86
2022/01/16 08:35:11;;;;;;;23.85;11.73;;;;;;;-0.84;60.91;101001.06;4405807;32;32822;-86
2022/01/16 08:37:39;;;;;;;25.58;10.73;;;;;;;-0.37;59.61;101000.28;4431441;32;31636;-86
2022/01/16 08:40:07;;;;;;;29.87;12.60;;;;;;;-0.28;59.11;100985.78;4391970;32;34531;-86
2022/01/16 08:42:37;;;;;;;28.17;13.23;;;;;;;-0.27;59.34;100982.34;4394154;32;32846;-86
2022/01/16 08:45:06;;;;;;;27.27;12.40;;;;;;;-0.24;59.76;100975.44;4391259;32;33081;-86
2022/01/16 08:47:34;;;;;;;28.15;12.45;;;;;;;-0.28;60.25;100965.00;4428043;32;35935;-86
2022/01/16 08:50:04;;;;;;;25.70;13.40;;;;;;;0.00;59.43;100960.34;4403688;32;30598;-87
2022/01/16 08:52:32;;;;;;;27.17;12.73;;;;;;;0.07;59.19;100967.38;4407104;32;33714;-86
2022/01/16 08:55:01;;;;;;;28.10;11.98;;;;;;;0.09;59.05;100960.47;4413273;32;33203;-86
2022/01/16 08:57:29;;;;;;;28.20;14.32;;;;;;;0.25;59.70;100962.50;4429076;32;32943;-86
2022/01/16 08:59:57;;;;;;;29.42;13.85;;;;;;;0.20;59.68;100958.94;4402850;32;33428;-87
2022/01/16 09:02:26;;;;;;;29.87;13.50;;;;;;;0.34;59.69;100945.31;4407868;32;33283;-87
2022/01/16 09:04:53;;;;;;;34.28;14.65;;;;;;;0.40;59.42;100955.78;4416443;32;33885;-87
2022/01/16 09:07:21;;;;;;;31.33;13.98;;;;;;;-0.28;62.44;100948.56;4440056;32;32979;-87
2022/01/16 09:09:49;;;;;;;32.17;13.52;;;;;;;-1.03;63.94;100954.84;4402388;32;34073;-87
2022/01/16 09:12:17;;;;;;;26.85;11.98;;;;;;;-0.49;62.52;100948.16;4409644;32;33713;-87
2022/01/16 09:14:45;;;;;;;26.48;12.98;;;;;;;0.19;60.76;100951.09;4415688;32;33529;-87
2022/01/16 09:17:13;;;;;;;25.90;13.32;;;;;;;-0.57;62.16;100950.56;4393376;32;34011;-87
2022/01/16 09:19:42;;;;;;;34.00;14.73;;;;;;;0.02;60.87;100953.44;4404022;32;33093;-87
2022/01/16 09:22:10;;;;;;;30.58;13.98;;;;;;;0.34;59.75;100948.78;4418893;32;33654;-86
2022/01/16 09:24:38;;;;;;;32.80;13.82;;;;;;;0.85;58.56;100949.53;4424779;32;33965;-87
2022/01/16 09:27:06;;;;;;;34.25;15.20;;;;;;;0.91;59.00;100949.63;4403948;32;33380;-87
2022/01/16 09:29:34;;;;;;;36.78;14.80;;;;;;;0.96;59.28;100951.44;4424708;32;33578;-87
2022/01/16 09:32:02;;;;;;;31.60;14.10;;;;;;;1.51;56.61;100944.31;4404949;32;34439;-87
2022/01/16 09:34:30;;;;;;;26.05;12.85;;;;;;;1.21;58.08;100931.81;4413571;32;33517;-87
2022/01/16 09:36:57;;;;;;;25.75;13.43;;;;;;;1.31;59.90;100934.53;4416815;32;32934;-87
2022/01/16 09:39:25;;;;;;;27.52;13.23;;;;;;;1.09;57.65;100930.78;4422645;32;33771;-88
2022/01/16 09:41:53;;;;;;;29.02;15.20;;;;;;;1.35;57.97;100932.00;4420414;32;33360;-87
2022/01/16 09:44:21;;;;;;;32.10;13.45;;;;;;;1.20;58.31;100926.59;4408527;32;33818;-87
2022/01/16 09:46:49;;;;;;;27.00;13.15;;;;;;;2.04;55.72;100906.62;4426555;32;32646;-87
2022/01/16 09:49:18;;;;;;;35.42;12.48;;;;;;;1.85;57.07;100925.56;4416126;32;33219;-87
2022/01/16 09:51:46;;;;;;;28.67;13.35;;;;;;;1.85;56.23;100915.16;4414950;32;33391;-87
2022/01/16 09:54:14;;;;;;;27.90;12.23;;;;;;;1.58;57.11;100913.16;4395501;32;32870;-87
2022/01/16 09:56:42;;;;;;;28.42;12.20;;;;;;;1.91;56.37;100907.41;4418015;32;32409;-87
2022/01/16 09:59:10;;;;;;;24.45;11.68;;;;;;;1.90;56.69;100910.84;4437238;32;33775;-87
2022/01/16 10:01:38;;;;;;;32.20;13.57;;;;;;;1.97;56.70;100903.12;4403822;32;33740;-87
2022/01/16 10:04:28;;;;;;;27.02;12.65;;;;;;;2.31;56.01;100899.06;4427089;32;33624;-87
2022/01/16 10:06:58;;;;;;;28.83;12.75;;;;;;;2.01;56.04;100898.81;4414112;32;32672;-87
2022/01/16 10:09:26;;;;;;;31.80;14.13;;;;;;;2.49;55.07;100895.72;4413256;32;34526;-87
2022/01/16 10:11:57;;;;;;;30.65;15.63;;;;;;;2.37;55.12;100882.56;4407365;32;33550;-87
2022/01/16 10:14:45;;;;;;;28.02;14.40;;;;;;;2.44;55.03;100883.50;4425830;32;32556;-88
2022/01/16 10:17:18;;;;;;;38.60;17.17;;;;;;;2.91;54.29;100881.19;4412605;32;32594;-87
2022/01/16 10:19:58;;;;;;;35.05;16.17;;;;;;;2.48;55.10;100875.72;4412826;32;34291;-87
2022/01/16 10:22:41;;;;;;;35.65;16.65;;;;;;;2.92;54.51;100869.88;4414374;32;34222;-87
2022/01/16 10:25:10;;;;;;;38.13;16.12;;;;;;;3.11;52.93;100872.56;4403463;32;32859;-87
2022/01/16 10:27:40;;;;;;;42.13;18.12;;;;;;;3.39;52.98;100870.91;4415769;32;33076;-87
2022/01/16 10:30:12;;;;;;;41.40;17.48;;;;;;;3.46;51.29;100862.22;4402596;32;33374;-89
2022/01/16 10:32:42;;;;;;;39.47;17.87;;;;;;;3.79;51.67;100858.78;4416770;32;34785;-89
2022/01/16 10:35:14;;;;;;;37.25;19.15;;;;;;;3.89;51.53;100854.44;4428633;32;34116;-89
2022/01/16 10:37:47;;;;;;;35.45;17.58;;;;;;;3.66;51.65;100857.06;4416221;32;34052;-89
2022/01/16 10:40:18;;;;;;;35.70;17.55;;;;;;;3.69;51.49;100857.03;4427882;32;33780;-89
2022/01/16 10:42:54;;;;;;;38.50;17.33;;;;;;;4.31;49.52;100854.41;4435300;32;34253;-89
2022/01/16 10:45:24;;;;;;;42.78;18.37;;;;;;;4.50;49.28;100849.16;4402148;32;35932;-89
2022/01/16 10:47:54;;;;;;;34.55;17.55;;;;;;;4.30;50.42;100844.84;4415638;32;33584;-89
2022/01/16 10:50:25;;;;;;;32.05;16.92;;;;;;;3.83;51.22;100844.84;4434808;32;34244;-89
2022/01/16 10:52:56;;;;;;;36.20;17.73;;;;;;;4.28;51.18;100848.34;4416731;32;33182;-89
2022/01/16 10:55:40;;;;;;;34.70;16.35;;;;;;;4.80;49.58;100849.09;4415477;32;32535;-89
2022/01/16 10:58:11;;;;;;;35.45;17.60;;;;;;;4.50;50.96;100849.16;4427590;32;33128;-88
2022/01/16 11:00:45;;;;;;;34.65;16.52;;;;;;;5.17;48.01;100843.69;4414872;32;33092;-89
2022/01/16 11:03:14;;;;;;;33.47;17.20;;;;;;;5.07;48.19;100842.00;4415805;32;33881;-88
2022/01/16 11:05:44;;;;;;;36.00;16.90;;;;;;;4.49;48.81;100857.87;4409676;32;32819;-89
2022/01/16 11:08:17;;;;;;;35.88;17.05;;;;;;;4.66;48.35;100843.03;4417472;32;33074;-89
2022/01/16 11:10:55;;;;;;;33.63;14.82;;;;;;;4.55;51.09;100843.03;4414934;32;33613;-89
2022/01/16 11:13:27;;;;;;;37.80;15.90;;;;;;;4.49;49.61;100842.19;4415394;32;34137;-88
2022/01/16 11:15:58;;;;;;;40.20;16.83;;;;;;;4.72;48.94;100829.91;4416855;32;33484;-89
2022/01/16 11:18:26;;;;;;;36.72;16.08;;;;;;;4.69;50.28;100836.91;4403365;32;31809;-88
2022/01/16 11:21:03;;;;;;;31.23;14.85;;;;;;;4.58;50.40;100831.72;4402702;32;32857;-89
2022/01/16 11:26:03;;;;;;;35.70;15.18;;;;;;;4.76;49.39;100817.72;4422318;32;33109;-89
2022/01/16 11:28:32;;;;;;;34.72;15.85;;;;;;;5.19;48.62;100813.13;4416597;32;33433;-88
2022/01/16 11:31:05;;;;;;;31.35;15.98;;;;;;;4.78;49.21;100803.72;4417187;32;32812;-89
2022/01/16 11:33:34;;;;;;;39.00;16.87;;;;;;;3.78;51.75;100803.06;4430111;32;33718;-89
2022/01/16 11:36:08;;;;;;;37.72;16.50;;;;;;;4.41;50.59;100791.66;4400525;32;32945;-89
2022/01/16 11:38:46;;;;;;;34.47;16.27;;;;;;;4.46;50.33;100790.75;4443283;32;32979;-89
2022/01/16 11:41:25;;;;;;;40.20;15.27;;;;;;;4.13;52.35;100786.50;4428657;32;34586;-89
2022/01/16 11:43:54;;;;;;;31.77;13.82;;;;;;;4.49;51.11;100777.69;4414775;32;32478;-89
2022/01/16 11:46:24;;;;;;;30.02;13.93;;;;;;;4.73;50.33;100775.84;4421930;32;33131;-89
2022/01/16 11:48:58;;;;;;;35.92;15.40;;;;;;;4.34;50.83;100781.22;4404356;32;32100;-89
2022/01/16 11:51:31;;;;;;;34.35;15.55;;;;;;;4.42;51.89;100782.94;4412756;32;32541;-89
2022/01/16 11:53:58;;;;;;;34.08;14.32;;;;;;;4.16;52.03;100776.03;4415156;32;32818;-89
2022/01/16 11:56:39;;;;;;;33.35;14.70;;;;;;;4.52;51.29;100777.69;4422058;32;33872;-89
2022/01/16 11:59:24;;;;;;;32.58;16.00;;;;;;;4.20;52.01;100777.75;4422148;32;33389;-89
2022/01/16 12:02:00;;;;;;;29.83;13.82;;;;;;;4.72;51.32;100764.50;4422177;32;33554;-89
2022/01/16 12:04:28;;;;;;;35.13;16.35;;;;;;;4.82;50.15;100766.22;4404391;32;32841;-89
2022/01/16 12:07:17;;;;;;;29.83;13.93;;;;;;;4.84;50.12;100764.47;4415306;32;33538;-89
2022/01/16 12:09:58;;;;;;;32.95;16.05;;;;;;;4.63;51.10;100756.69;4427659;32;32309;-89
2022/01/16 12:12:31;;;;;;;34.70;16.37;;;;;;;4.64;51.66;100745.34;4412980;32;33693;-89
2022/01/16 12:15:00;;;;;;;35.38;15.48;;;;;;;5.01;49.82;100726.84;4421974;32;34802;-89